Burton, Illinois
Current Conditions -  °F | °C
As of 3:54 PM on Thursday 23 Oct 2014 (Local Time) from KUIN Reporting Station
Overcast Overcast  
Wind Chill: 58°   Ceiling: 3700
Heat Index: 58°   Visibility: 10mi
Dew Point: 51°   Wind: 10mph
Humidity: 78%   Direction: 170°S
Pressure: 30.07"   Gusts: NA
Location:  39.9317°N, 91.2953°W
Report Text: KUIN 232054Z AUTO 17009KT 10SM BKN037 OVC100 14/11 A3007 RMK AO2 RAE1957 SLP182 P0000 60001 T01440106 58013
Loading
Personal Weather Stations






























Interactive Weather Map
Tropical Storm Tracking
New forecast layout! Learn more

10-Day Weather Forecast

Advertisements
Track Severe Weather on mobile